createdAt,value
2022-08-03T00:01:03.666Z,75.70
2022-08-03T00:03:32.094Z,75.70
2022-08-03T00:06:04.133Z,75.70
2022-08-03T00:08:34.183Z,75.90
2022-08-03T00:11:09.508Z,76.00
2022-08-03T00:13:37.461Z,76.60
2022-08-03T00:16:13.273Z,76.60
2022-08-03T00:18:46.708Z,76.60
2022-08-03T00:21:16.466Z,76.70
2022-08-03T00:23:51.343Z,76.50
2022-08-03T00:26:29.057Z,76.80
2022-08-03T00:28:58.781Z,77.00
2022-08-03T00:31:39.850Z,77.20
2022-08-03T00:34:36.283Z,77.40
2022-08-03T00:37:15.144Z,77.70
2022-08-03T00:39:44.808Z,78.00
2022-08-03T00:42:12.958Z,78.30
2022-08-03T00:44:43.279Z,78.40
2022-08-03T00:47:12.203Z,79.00
2022-08-03T00:50:01.195Z,79.10
2022-08-03T00:52:30.176Z,79.50
2022-08-03T00:55:00.469Z,79.70
2022-08-03T00:57:37.900Z,79.80
2022-08-03T01:00:09.398Z,79.90
2022-08-03T01:02:39.661Z,80.20
2022-08-03T01:05:16.915Z,80.30
2022-08-03T01:08:14.003Z,80.50
2022-08-03T01:11:06.846Z,80.90
2022-08-03T01:14:19.390Z,80.60
2022-08-03T01:17:26.838Z,80.80
2022-08-03T01:20:05.001Z,81.00
2022-08-03T01:22:38.649Z,81.90
2022-08-03T01:25:45.502Z,81.90
2022-08-03T01:28:50.754Z,82.00
2022-08-03T01:31:24.100Z,82.40
2022-08-03T01:34:00.173Z,82.80
2022-08-03T01:36:35.224Z,82.80
2022-08-03T01:39:08.589Z,83.50
2022-08-03T01:41:59.431Z,83.50
2022-08-03T01:44:42.498Z,83.90
2022-08-03T01:47:11.504Z,84.00
2022-08-03T01:49:56.217Z,84.00
2022-08-03T01:52:24.754Z,84.50
2022-08-03T01:54:53.456Z,84.30
2022-08-03T01:57:26.815Z,84.20
2022-08-03T02:00:00.838Z,84.60
2022-08-03T02:02:44.499Z,84.10
2022-08-03T02:05:18.949Z,84.20
2022-08-03T02:07:49.437Z,83.90
2022-08-03T02:10:34.366Z,83.80
2022-08-03T02:13:06.468Z,84.00
2022-08-03T02:15:39.950Z,84.00
2022-08-03T02:18:09.500Z,84.00
2022-08-03T02:20:40.460Z,83.90
2022-08-03T02:23:10.296Z,83.70
2022-08-03T02:26:05.167Z,83.80
2022-08-03T02:28:40.201Z,83.80
2022-08-03T02:31:26.898Z,84.00
2022-08-03T02:33:57.797Z,84.00
2022-08-03T02:36:39.331Z,84.10
2022-08-03T02:39:17.508Z,84.20
2022-08-03T02:41:53.166Z,84.20
2022-08-03T02:44:32.313Z,84.70
2022-08-03T02:47:21.957Z,85.30
2022-08-03T02:49:56.650Z,84.80
2022-08-03T02:52:40.628Z,85.20
2022-08-03T02:55:10.886Z,85.10
2022-08-03T02:57:45.664Z,85.10
2022-08-03T03:00:27.702Z,85.00
2022-08-03T03:03:13.009Z,85.00
2022-08-03T03:05:54.961Z,85.10
2022-08-03T03:08:36.925Z,85.10
2022-08-03T03:11:16.332Z,85.30
2022-08-03T03:13:52.724Z,85.30
2022-08-03T03:16:22.398Z,85.50
2022-08-03T03:18:53.125Z,85.50
2022-08-03T03:21:43.655Z,85.80
2022-08-03T03:24:25.026Z,85.50
2022-08-03T03:26:53.222Z,85.80
2022-08-03T03:29:23.954Z,86.00
2022-08-03T03:31:54.196Z,86.30
2022-08-03T03:34:25.422Z,86.50
2022-08-03T03:36:54.906Z,86.70
2022-08-03T03:39:25.249Z,86.80
2022-08-03T03:41:53.655Z,86.90
2022-08-03T03:44:20.518Z,86.90
2022-08-03T03:46:50.199Z,86.90
2022-08-03T03:49:30.585Z,87.00
2022-08-03T03:52:01.133Z,87.20
2022-08-03T03:54:41.661Z,87.10
2022-08-03T03:57:12.896Z,87.10
2022-08-03T03:59:42.556Z,87.40
2022-08-03T04:02:19.124Z,87.60
2022-08-03T04:04:49.064Z,88.00
2022-08-03T04:07:20.564Z,87.90
2022-08-03T04:09:50.799Z,88.30
2022-08-03T04:12:21.932Z,88.60
2022-08-03T04:15:02.472Z,88.70
2022-08-03T04:17:32.598Z,88.90
2022-08-03T04:20:03.438Z,89.10
2022-08-03T04:22:33.434Z,89.50
2022-08-03T04:25:08.932Z,89.70
2022-08-03T04:27:41.714Z,90.00
2022-08-03T04:30:18.911Z,90.10
2022-08-03T04:32:57.865Z,90.10
2022-08-03T04:36:00.880Z,90.30
2022-08-03T04:38:43.829Z,90.40
2022-08-03T04:41:12.843Z,90.50
2022-08-03T04:43:42.530Z,90.60
2022-08-03T04:46:14.726Z,90.50
2022-08-03T04:48:44.705Z,90.70
2022-08-03T04:51:21.287Z,90.90
2022-08-03T04:53:49.180Z,90.90
2022-08-03T04:56:19.440Z,91.40
2022-08-03T04:58:47.106Z,91.30
2022-08-03T05:01:20.412Z,91.50
2022-08-03T05:03:50.980Z,91.40
2022-08-03T05:06:20.841Z,91.30
2022-08-03T05:08:54.254Z,91.20
2022-08-03T05:11:34.229Z,91.20
2022-08-03T05:14:11.480Z,91.30
2022-08-03T05:16:41.784Z,91.30
2022-08-03T05:19:13.186Z,91.40
2022-08-03T05:21:52.596Z,91.50
2022-08-03T05:24:28.756Z,91.50
2022-08-03T05:26:58.813Z,91.50
2022-08-03T05:29:26.743Z,91.50
2022-08-03T05:31:57.608Z,91.60
2022-08-03T05:34:24.632Z,91.60
2022-08-03T05:36:51.631Z,91.60
2022-08-03T05:39:20.328Z,91.50
2022-08-03T05:41:48.210Z,91.40
2022-08-03T05:44:19.595Z,91.20
2022-08-03T05:46:50.900Z,91.10
2022-08-03T05:49:20.997Z,91.00
2022-08-03T05:52:00.113Z,90.90
2022-08-03T05:54:55.389Z,90.70
2022-08-03T05:57:30.322Z,90.70
2022-08-03T06:00:09.820Z,90.60
2022-08-03T06:02:46.477Z,90.50
2022-08-03T06:05:17.027Z,90.40
2022-08-03T06:07:46.816Z,90.10
2022-08-03T06:10:35.942Z,90.20
2022-08-03T06:13:07.247Z,90.40
2022-08-03T06:15:36.014Z,90.30
2022-08-03T06:18:05.345Z,90.10
2022-08-03T06:20:33.101Z,90.40
2022-08-03T06:23:01.509Z,90.40
2022-08-03T06:25:37.290Z,90.50
2022-08-03T06:28:35.264Z,90.60
2022-08-03T06:31:07.594Z,90.60
2022-08-03T06:33:48.312Z,90.60
2022-08-03T06:36:37.095Z,90.10
2022-08-03T06:39:16.676Z,89.60
2022-08-03T06:41:54.733Z,89.30
2022-08-03T06:44:24.973Z,88.00
2022-08-03T06:47:01.528Z,87.50
2022-08-03T06:49:31.891Z,86.30
2022-08-03T06:52:05.451Z,85.30
2022-08-03T06:54:37.919Z,84.40
2022-08-03T06:57:15.015Z,83.20
2022-08-03T07:00:09.297Z,82.50
2022-08-03T07:02:36.454Z,82.00
2022-08-03T07:05:12.344Z,82.10
2022-08-03T07:07:40.641Z,82.20
2022-08-03T07:10:09.475Z,81.60
2022-08-03T07:12:56.006Z,80.70
2022-08-03T07:15:54.265Z,80.10
2022-08-03T07:18:24.613Z,80.40
2022-08-03T07:20:58.892Z,80.40
2022-08-03T07:23:28.959Z,80.30
2022-08-03T07:25:58.613Z,80.10
2022-08-03T07:28:28.387Z,79.00
2022-08-03T07:31:05.018Z,79.00
2022-08-03T07:33:33.183Z,79.10
2022-08-03T07:36:03.243Z,78.70
2022-08-03T07:38:33.350Z,78.50
2022-08-03T07:41:03.523Z,77.80
2022-08-03T07:43:39.412Z,77.90
2022-08-03T07:46:10.766Z,78.10
2022-08-03T07:48:41.100Z,77.10
2022-08-03T07:51:11.148Z,77.10
2022-08-03T07:53:47.267Z,77.40
2022-08-03T07:56:24.691Z,76.40
2022-08-03T07:59:00.033Z,75.90
2022-08-03T08:01:28.156Z,75.50
2022-08-03T08:03:56.480Z,75.80
2022-08-03T08:06:26.694Z,75.40
2022-08-03T08:08:57.770Z,74.70
2022-08-03T08:11:29.097Z,74.60
2022-08-03T08:14:00.065Z,74.10
2022-08-03T08:16:29.873Z,73.40
2022-08-03T08:19:00.603Z,73.50
2022-08-03T08:21:53.545Z,73.30
2022-08-03T08:24:20.683Z,73.20
2022-08-03T08:26:56.638Z,72.10
2022-08-03T08:29:25.333Z,70.80
2022-08-03T08:31:55.556Z,71.50
2022-08-03T08:34:25.763Z,70.80
2022-08-03T08:37:04.996Z,70.90
2022-08-03T08:39:33.087Z,70.30
2022-08-03T08:42:09.548Z,68.40
2022-08-03T08:44:44.481Z,68.10
2022-08-03T08:47:14.501Z,69.00
2022-08-03T08:49:53.601Z,69.00
2022-08-03T08:52:36.477Z,68.50
2022-08-03T08:55:07.237Z,67.50
2022-08-03T08:57:43.061Z,67.70
2022-08-03T09:00:12.834Z,67.30
2022-08-03T09:02:47.505Z,66.90
2022-08-03T09:05:47.402Z,66.90
2022-08-03T09:08:16.856Z,67.30
2022-08-03T09:10:46.688Z,67.20
2022-08-03T09:13:16.792Z,67.10
2022-08-03T09:15:52.730Z,66.90
2022-08-03T09:18:33.294Z,66.10
2022-08-03T09:21:33.330Z,66.40
2022-08-03T09:24:07.260Z,65.20
2022-08-03T09:26:53.766Z,65.80
2022-08-03T09:29:23.896Z,65.40
2022-08-03T09:32:04.672Z,65.70
2022-08-03T09:34:34.785Z,65.40
2022-08-03T09:37:03.496Z,65.80
2022-08-03T09:39:41.131Z,66.20
2022-08-03T09:42:23.817Z,65.70
2022-08-03T09:44:53.681Z,64.60
2022-08-03T09:47:37.363Z,65.00
2022-08-03T09:50:14.966Z,64.20
2022-08-03T09:52:52.191Z,64.50
2022-08-03T09:55:23.697Z,65.10
2022-08-03T09:58:21.086Z,64.90
2022-08-03T10:01:05.540Z,64.20
2022-08-03T10:04:03.351Z,64.30
2022-08-03T10:06:29.460Z,63.80
2022-08-03T10:09:16.316Z,64.00
2022-08-03T10:11:44.439Z,63.50
2022-08-03T10:14:20.825Z,62.50
2022-08-03T10:16:50.182Z,62.70
2022-08-03T10:19:18.694Z,62.20
2022-08-03T10:22:12.618Z,62.90
2022-08-03T10:24:49.556Z,62.60
2022-08-03T10:27:32.051Z,62.30
2022-08-03T10:30:10.556Z,61.70
2022-08-03T10:32:57.431Z,61.60
2022-08-03T10:35:29.082Z,61.50
2022-08-03T10:38:06.543Z,61.20
2022-08-03T10:40:48.492Z,61.40
2022-08-03T10:43:49.169Z,61.50
2022-08-03T10:46:19.048Z,61.30
2022-08-03T10:48:52.034Z,60.70
2022-08-03T10:51:32.301Z,60.80
2022-08-03T10:54:02.158Z,61.50
2022-08-03T10:56:49.523Z,61.20
2022-08-03T11:00:04.126Z,60.40
2022-08-03T11:03:06.114Z,59.90
2022-08-03T11:05:37.140Z,59.60
2022-08-03T11:08:36.032Z,60.10
2022-08-03T11:11:23.705Z,60.40
2022-08-03T11:14:03.203Z,60.10
2022-08-03T11:16:51.105Z,59.70
2022-08-03T11:19:20.762Z,60.10
2022-08-03T11:21:55.300Z,60.00
2022-08-03T11:24:45.249Z,59.10
2022-08-03T11:27:27.589Z,59.10
2022-08-03T11:30:29.320Z,59.40
2022-08-03T11:33:00.834Z,58.70
2022-08-03T11:35:33.655Z,59.00
2022-08-03T11:38:15.692Z,59.00
2022-08-03T11:40:54.719Z,59.00
2022-08-03T11:43:40.663Z,58.30
2022-08-03T11:46:12.571Z,57.90
2022-08-03T11:48:46.568Z,58.50
2022-08-03T11:51:33.265Z,58.60
2022-08-03T11:54:11.864Z,57.80
2022-08-03T11:56:53.366Z,57.70
2022-08-03T11:59:42.187Z,57.50
2022-08-03T12:02:18.747Z,57.10
2022-08-03T12:05:05.701Z,57.00
2022-08-03T12:08:03.061Z,56.90
2022-08-03T12:10:28.043Z,56.20
2022-08-03T12:13:01.734Z,56.50
2022-08-03T12:15:35.631Z,55.50
2022-08-03T12:18:12.378Z,54.80
2022-08-03T12:20:39.446Z,54.50
2022-08-03T12:23:17.827Z,54.00
2022-08-03T12:25:49.552Z,53.80
2022-08-03T12:28:36.204Z,53.60
2022-08-03T12:31:14.364Z,53.40
2022-08-03T12:34:09.438Z,53.30
2022-08-03T12:36:37.600Z,53.50
2022-08-03T12:39:10.177Z,53.00
2022-08-03T12:41:42.256Z,52.30
2022-08-03T12:44:13.991Z,51.90
2022-08-03T12:46:51.083Z,51.60
2022-08-03T12:49:18.027Z,51.50
2022-08-03T12:51:47.888Z,51.80
2022-08-03T12:54:44.365Z,51.20
2022-08-03T12:57:18.853Z,51.90
2022-08-03T12:59:55.369Z,50.90
2022-08-03T13:02:33.963Z,50.70
2022-08-03T13:05:10.965Z,50.30
2022-08-03T13:07:46.451Z,49.60
2022-08-03T13:10:33.588Z,49.60
2022-08-03T13:13:03.550Z,49.00
2022-08-03T13:15:38.614Z,49.10
2022-08-03T13:18:20.828Z,49.10
2022-08-03T13:20:51.086Z,48.70
2022-08-03T13:23:27.208Z,48.30
2022-08-03T13:26:04.383Z,47.80
2022-08-03T13:28:34.073Z,47.50
2022-08-03T13:31:01.929Z,46.70
2022-08-03T13:33:32.213Z,46.50
2022-08-03T13:36:01.571Z,46.50
2022-08-03T13:38:30.989Z,46.60
2022-08-03T13:40:59.498Z,46.40
2022-08-03T13:43:32.128Z,46.20
2022-08-03T13:46:00.192Z,45.40
2022-08-03T13:48:36.210Z,45.30
2022-08-03T13:51:11.992Z,45.40
2022-08-03T13:53:59.496Z,45.40
2022-08-03T13:56:34.335Z,45.80
2022-08-03T13:59:02.613Z,45.20
2022-08-03T14:01:54.361Z,45.20
2022-08-03T14:04:22.140Z,44.70
2022-08-03T14:06:56.042Z,44.10
2022-08-03T14:09:24.112Z,44.60
2022-08-03T14:12:04.151Z,44.10
2022-08-03T14:14:35.216Z,43.90
2022-08-03T14:17:04.447Z,44.40
2022-08-03T14:19:33.397Z,43.90
2022-08-03T14:22:23.695Z,44.40
2022-08-03T14:24:51.718Z,44.40
2022-08-03T14:27:21.592Z,44.60
2022-08-03T14:29:51.075Z,44.50
2022-08-03T14:32:19.849Z,44.30
2022-08-03T14:34:47.368Z,44.30
2022-08-03T14:37:17.112Z,44.30
2022-08-03T14:40:01.213Z,44.70
2022-08-03T14:42:29.160Z,44.50
2022-08-03T14:45:03.429Z,43.90
2022-08-03T14:50:10.206Z,43.80
2022-08-03T14:50:40.030Z,43.50
2022-08-03T14:53:09.157Z,43.50
2022-08-03T14:55:49.561Z,42.90
2022-08-03T14:58:29.231Z,42.90
2022-08-03T15:00:58.416Z,42.30
2022-08-03T15:03:29.154Z,42.80
2022-08-03T15:05:57.749Z,42.80
2022-08-03T15:08:26.127Z,42.70
2022-08-03T15:11:03.483Z,42.30
2022-08-03T15:13:34.222Z,42.10
2022-08-03T15:16:03.162Z,42.40
2022-08-03T15:18:31.458Z,42.40
2022-08-03T15:20:59.645Z,42.30
2022-08-03T15:23:26.976Z,42.40
2022-08-03T15:26:27.885Z,42.30
2022-08-03T15:28:47.224Z,42.20
2022-08-03T15:31:25.431Z,42.00
2022-08-03T15:33:53.570Z,41.70
2022-08-03T15:36:23.344Z,41.90
2022-08-03T15:39:03.474Z,41.80
2022-08-03T15:41:32.418Z,41.80
2022-08-03T15:44:04.167Z,41.90
2022-08-03T15:46:35.908Z,41.80
2022-08-03T15:49:06.155Z,41.80
2022-08-03T15:51:42.467Z,42.10
2022-08-03T15:54:10.564Z,42.10
2022-08-03T15:56:39.580Z,42.00
2022-08-03T15:59:12.490Z,42.20
2022-08-03T16:01:42.644Z,42.50
2022-08-03T16:04:10.562Z,42.40
2022-08-03T16:06:39.081Z,42.50
2022-08-03T16:09:24.187Z,42.60
2022-08-03T16:11:58.119Z,42.90
2022-08-03T16:14:34.499Z,43.10
2022-08-03T16:17:08.874Z,43.10
2022-08-03T16:19:39.682Z,43.20
2022-08-03T16:22:09.574Z,43.00
2022-08-03T16:24:39.203Z,43.00
2022-08-03T16:27:15.594Z,43.30
2022-08-03T16:30:00.844Z,43.60
2022-08-03T16:32:31.138Z,43.60
2022-08-03T16:35:06.582Z,43.90
2022-08-03T16:37:50.641Z,43.70
2022-08-03T16:40:26.297Z,43.80
2022-08-03T16:42:54.019Z,43.70
2022-08-03T16:45:23.826Z,44.00
2022-08-03T16:48:01.489Z,44.20
2022-08-03T16:50:42.671Z,44.00
2022-08-03T16:53:33.130Z,43.90
2022-08-03T16:56:09.875Z,43.70
2022-08-03T16:58:42.235Z,43.80
2022-08-03T17:01:24.248Z,44.50
2022-08-03T17:04:03.308Z,44.10
2022-08-03T17:06:35.655Z,44.10
2022-08-03T17:09:18.305Z,44.50
2022-08-03T17:11:50.054Z,44.90
2022-08-03T17:14:22.827Z,44.70
2022-08-03T17:17:04.542Z,44.50
2022-08-03T17:19:36.139Z,44.60
2022-08-03T17:22:20.506Z,44.70
2022-08-03T17:24:55.820Z,44.80
2022-08-03T17:28:49.702Z,44.80
2022-08-03T17:30:31.719Z,45.00
2022-08-03T17:33:04.072Z,45.10
2022-08-03T17:35:49.471Z,45.50
2022-08-03T17:38:22.387Z,45.80
2022-08-03T17:40:52.275Z,45.70
2022-08-03T17:44:14.107Z,45.60
2022-08-03T17:46:12.255Z,45.60
2022-08-03T17:48:43.789Z,45.90
2022-08-03T17:51:46.395Z,46.10
2022-08-03T17:54:27.219Z,46.70
2022-08-03T17:58:02.101Z,46.80
2022-08-03T18:00:32.667Z,47.50
2022-08-03T18:03:59.329Z,47.30
2022-08-03T18:06:31.608Z,47.30
2022-08-03T18:10:03.731Z,47.60
2022-08-03T18:11:59.370Z,47.50
2022-08-03T18:14:57.588Z,47.50
2022-08-03T18:17:55.766Z,47.70
2022-08-03T18:23:08.930Z,47.90
2022-08-03T18:25:53.618Z,48.30
2022-08-03T18:28:31.584Z,48.60
2022-08-03T18:31:11.470Z,49.00
2022-08-03T18:34:19.273Z,49.30
2022-08-03T18:36:34.613Z,49.30
2022-08-03T18:39:03.506Z,49.40
2022-08-03T18:41:35.417Z,49.60
2022-08-03T18:44:52.631Z,49.70
2022-08-03T18:47:52.510Z,49.80
2022-08-03T18:50:49.533Z,50.30
2022-08-03T18:54:02.790Z,50.50
2022-08-03T18:56:55.575Z,51.20
2022-08-03T18:59:50.014Z,51.40
2022-08-03T19:03:04.367Z,51.60
2022-08-03T19:05:57.810Z,51.80
2022-08-03T19:09:06.620Z,52.20
2022-08-03T19:12:12.797Z,52.70
2022-08-03T19:15:03.746Z,53.40
2022-08-03T19:17:35.710Z,53.80
2022-08-03T19:20:08.365Z,53.80
2022-08-03T19:22:37.813Z,53.70
2022-08-03T19:25:12.162Z,54.10
2022-08-03T19:27:44.664Z,54.20
2022-08-03T19:30:26.525Z,54.30
2022-08-03T19:32:55.525Z,55.10
2022-08-03T19:35:46.454Z,55.10
2022-08-03T19:38:16.630Z,55.30
2022-08-03T19:41:03.628Z,55.60
2022-08-03T19:43:53.097Z,55.70
2022-08-03T19:46:31.061Z,55.90
2022-08-03T19:49:15.809Z,56.30
2022-08-03T19:52:01.367Z,56.00
2022-08-03T19:54:54.660Z,55.80
2022-08-03T19:57:32.568Z,56.40
2022-08-03T20:00:04.327Z,56.40
2022-08-03T20:02:37.357Z,56.50
2022-08-03T20:05:15.112Z,56.60
2022-08-03T20:07:49.375Z,56.60
2022-08-03T20:10:18.792Z,56.40
2022-08-03T20:12:47.325Z,56.30
2022-08-03T20:15:22.236Z,56.30
2022-08-03T20:17:58.858Z,56.40
2022-08-03T20:20:32.596Z,56.50
2022-08-03T20:23:07.975Z,57.00
2022-08-03T20:29:09.897Z,56.50
2022-08-03T20:31:37.878Z,56.60
2022-08-03T20:34:17.515Z,57.30
2022-08-03T20:36:47.716Z,57.90
2022-08-03T20:39:16.189Z,57.90
2022-08-03T20:41:47.101Z,58.20
2022-08-03T20:44:14.909Z,58.50
2022-08-03T20:46:53.502Z,59.00
2022-08-03T20:49:45.525Z,59.40
2022-08-03T20:52:22.564Z,60.30
2022-08-03T20:54:56.074Z,59.90
2022-08-03T20:57:25.006Z,59.90
2022-08-03T21:00:00.159Z,59.90
2022-08-03T21:02:29.851Z,59.90
2022-08-03T21:05:08.516Z,60.00
2022-08-03T21:08:06.267Z,60.10
2022-08-03T21:10:38.489Z,60.00
2022-08-03T21:13:12.822Z,56.80
2022-08-03T21:13:41.763Z,60.10
2022-08-03T21:16:15.077Z,60.60
2022-08-03T21:19:03.693Z,60.80
2022-08-03T21:21:39.351Z,61.50
2022-08-03T21:24:11.128Z,61.10
2022-08-03T21:26:45.055Z,61.10
2022-08-03T21:29:13.864Z,61.10
2022-08-03T21:31:46.431Z,61.00
2022-08-03T21:34:16.661Z,61.10
2022-08-03T21:36:45.913Z,61.30
2022-08-03T21:39:14.160Z,61.10
2022-08-03T21:41:43.590Z,62.00
2022-08-03T21:44:11.959Z,62.50
2022-08-03T21:46:41.010Z,63.00
2022-08-03T21:50:05.703Z,63.80
2022-08-03T21:52:08.905Z,63.30
2022-08-03T21:54:42.274Z,63.10
2022-08-03T21:57:24.579Z,63.90
2022-08-03T22:00:13.606Z,63.00
2022-08-03T22:02:45.630Z,62.90
2022-08-03T22:05:43.648Z,62.80
2022-08-03T22:08:17.541Z,62.70
2022-08-03T22:10:47.596Z,63.00
2022-08-03T22:13:43.063Z,63.00
2022-08-03T22:16:10.971Z,62.80
2022-08-03T22:18:47.314Z,64.00
2022-08-03T22:21:28.095Z,63.40
2022-08-03T22:24:13.109Z,63.20
2022-08-03T22:26:49.695Z,62.80
2022-08-03T22:29:18.028Z,62.60
2022-08-03T22:31:58.381Z,62.30
2022-08-03T22:34:29.654Z,64.30
2022-08-03T22:37:03.701Z,64.70
2022-08-03T22:39:39.350Z,63.40
2022-08-03T22:42:08.339Z,63.20
2022-08-03T22:44:36.227Z,63.50
2022-08-03T22:47:12.854Z,64.50
2022-08-03T22:49:45.141Z,64.40
2022-08-03T22:52:21.847Z,64.50
2022-08-03T22:54:55.208Z,64.50
2022-08-03T22:57:25.665Z,64.10
2022-08-03T22:59:54.600Z,64.40
2022-08-03T23:02:25.941Z,64.70
2022-08-03T23:04:59.911Z,64.40
2022-08-03T23:07:39.455Z,63.70
2022-08-03T23:10:17.905Z,63.40
2022-08-03T23:12:50.842Z,63.20
2022-08-03T23:15:26.385Z,63.90
2022-08-03T23:17:58.813Z,63.20
2022-08-03T23:23:14.378Z,62.80
2022-08-03T23:25:56.061Z,63.10
2022-08-03T23:28:29.036Z,63.10
2022-08-03T23:31:11.906Z,63.20
2022-08-03T23:33:43.335Z,63.40
2022-08-03T23:36:31.052Z,63.90
2022-08-03T23:39:08.361Z,63.40
2022-08-03T23:41:35.963Z,63.30
2022-08-03T23:44:06.689Z,63.40
2022-08-03T23:46:37.164Z,63.40
2022-08-03T23:49:12.846Z,63.80
2022-08-03T23:52:06.422Z,63.80
2022-08-03T23:55:21.356Z,63.70
2022-08-03T23:58:23.058Z,64.00
